Time;durP1;ratioP1;P1;durP2;ratioP2;P2;SDS_P1;SDS_P2;PMS_P1;PMS_P2;Temp;Humidity;BMP_temperature;BMP_pressure;BME280_temperature;BME280_humidity;BME280_pressure;Samples;Min_cycle;Max_cycle;Signal;HPM_P1;HPM_P2
2023/05/30 00:01:46;;;;;;;6.03;2.65;;;11.60;99.90;;;;;;4992773;28;20040;-82
2023/05/30 00:04:12;;;;;;;3.50;2.65;;;11.60;99.90;;;;;;4988452;28;20026;-80
2023/05/30 00:06:38;;;;;;;2.80;2.53;;;11.60;99.90;;;;;;5004244;28;20030;-80
2023/05/30 00:09:04;;;;;;;4.47;2.78;;;11.60;99.90;;;;;;4983078;28;20027;-80
2023/05/30 00:11:30;;;;;;;7.30;2.55;;;11.60;99.90;;;;;;4982522;28;20034;-81
2023/05/30 00:13:56;;;;;;;5.82;2.88;;;11.70;99.90;;;;;;4984888;28;20027;-81
2023/05/30 00:16:23;;;;;;;3.85;2.97;;;11.90;99.90;;;;;;4983106;28;20121;-80
2023/05/30 00:18:52;;;;;;;3.55;2.33;;;12.00;99.90;;;;;;4984107;28;20026;-80
2023/05/30 00:21:18;;;;;;;3.20;2.17;;;12.10;99.90;;;;;;4983660;28;20034;-81
2023/05/30 00:23:45;;;;;;;4.63;2.67;;;12.10;99.90;;;;;;4983592;28;20054;-80
2023/05/30 00:26:11;;;;;;;7.18;2.80;;;12.10;99.90;;;;;;4984645;28;20387;-80
2023/05/30 00:28:38;;;;;;;3.28;2.30;;;12.20;99.90;;;;;;5002388;28;20082;-80
2023/05/30 00:31:05;;;;;;;4.25;2.67;;;12.20;99.90;;;;;;4984733;28;20026;-81
2023/05/30 00:33:31;;;;;;;4.57;2.55;;;;;;;;;;4983591;28;20018;-80
2023/05/30 00:35:57;;;;;;;3.80;2.50;;;12.10;99.90;;;;;;4983972;28;20114;-80
2023/05/30 00:38:23;;;;;;;5.65;2.70;;;12.20;99.90;;;;;;5000877;28;20555;-81
2023/05/30 00:40:48;;;;;;;3.78;2.63;;;12.20;99.90;;;;;;4983861;28;20606;-80
2023/05/30 00:43:15;;;;;;;4.00;2.80;;;12.40;99.90;;;;;;5002903;28;20030;-81
2023/05/30 00:45:42;;;;;;;5.93;2.50;;;12.40;99.90;;;;;;5002716;28;20018;-80
2023/05/30 00:48:07;;;;;;;4.85;2.47;;;12.40;99.90;;;;;;4984710;28;20026;-81
2023/05/30 00:50:34;;;;;;;2.97;2.03;;;12.50;99.90;;;;;;4988717;28;20023;-81
2023/05/30 00:53:00;;;;;;;4.50;2.20;;;12.50;99.90;;;;;;5008722;28;20073;-81
2023/05/30 00:55:29;;;;;;;2.45;2.22;;;12.60;99.90;;;;;;4988735;28;20475;-81
2023/05/30 00:57:56;;;;;;;3.92;2.72;;;12.70;99.90;;;;;;4989219;28;20092;-82
2023/05/30 01:00:23;;;;;;;5.18;2.40;;;12.80;99.90;;;;;;5002822;28;20410;-81
2023/05/30 01:02:49;;;;;;;3.42;2.10;;;12.80;99.90;;;;;;5004935;28;20018;-80
2023/05/30 01:05:15;;;;;;;2.72;2.25;;;12.50;99.90;;;;;;4989425;28;20061;-81
2023/05/30 01:07:44;;;;;;;5.43;3.03;;;12.80;99.90;;;;;;5008667;28;20022;-80
2023/05/30 01:10:13;;;;;;;5.20;2.17;;;12.80;99.90;;;;;;5008526;28;20054;-82
2023/05/30 01:13:02;;;;;;;4.97;3.40;;;12.80;99.90;;;;;;5009047;28;20030;-80
2023/05/30 01:15:43;;;;;;;3.22;2.15;;;12.60;99.90;;;;;;4958676;28;20019;-81
2023/05/30 01:18:38;;;;;;;3.80;2.60;;;12.50;99.90;;;;;;4991760;28;20030;-80
2023/05/30 01:21:10;;;;;;;5.90;2.25;;;12.50;99.90;;;;;;4986977;28;20039;-80
2023/05/30 01:23:55;;;;;;;4.78;2.55;;;12.50;99.90;;;;;;5011531;28;20002;-81
2023/05/30 01:26:52;;;;;;;5.30;2.88;;;12.50;99.90;;;;;;4997513;28;20041;-79
2023/05/30 01:29:20;;;;;;;2.50;2.17;;;12.40;99.90;;;;;;5000672;28;20034;-81
2023/05/30 01:31:46;;;;;;;5.53;3.00;;;12.40;99.90;;;;;;5016703;28;20026;-81
2023/05/30 01:34:14;;;;;;;4.03;3.00;;;12.30;99.90;;;;;;4988096;28;20030;-80
2023/05/30 01:36:40;;;;;;;7.32;3.20;;;12.30;99.90;;;;;;4996684;28;20021;-81
2023/05/30 01:39:06;;;;;;;6.45;3.10;;;12.20;99.90;;;;;;5011112;28;20085;-81
2023/05/30 01:41:47;;;;;;;6.28;3.00;;;12.20;99.90;;;;;;4991723;28;20046;-81
2023/05/30 01:44:33;;;;;;;3.80;2.83;;;12.20;99.90;;;;;;5006347;28;20130;-79
2023/05/30 01:47:14;;;;;;;5.93;2.83;;;12.20;99.90;;;;;;4989238;28;20042;-79
2023/05/30 01:50:09;;;;;;;5.28;3.08;;;12.20;99.90;;;;;;4985740;28;20045;-80
2023/05/30 01:52:40;;;;;;;3.33;2.55;;;12.10;99.90;;;;;;4992012;28;20066;-81
2023/05/30 01:55:08;;;;;;;5.82;3.00;;;12.10;99.90;;;;;;4977106;28;20011;-78
2023/05/30 01:57:50;;;;;;;8.45;3.33;;;12.10;99.90;;;;;;4984673;28;20042;-83
2023/05/30 02:00:16;;;;;;;3.33;2.90;;;12.10;99.90;;;;;;4963132;28;20035;-80
2023/05/30 02:02:43;;;;;;;10.18;3.38;;;12.00;99.90;;;;;;4964985;28;20041;-77
2023/05/30 02:05:09;;;;;;;5.20;2.78;;;;;;;;;;4967563;28;20037;-83
2023/05/30 02:07:35;;;;;;;14.50;4.18;;;12.00;99.90;;;;;;5248225;23;20078;-78
2023/05/30 02:10:01;;;;;;;4.70;2.83;;;11.90;99.90;;;;;;4977601;28;20054;-77
2023/05/30 02:12:26;;;;;;;5.15;2.80;;;11.80;99.90;;;;;;5005840;28;20058;-81
2023/05/30 02:14:54;;;;;;;5.03;2.97;;;11.80;99.90;;;;;;4994067;28;20018;-78
2023/05/30 02:17:49;;;;;;;3.97;2.70;;;11.80;99.90;;;;;;4994144;28;20106;-78
2023/05/30 02:20:15;;;;;;;6.55;3.55;;;11.60;99.90;;;;;;5010671;28;20030;-80
2023/05/30 02:22:40;;;;;;;4.18;3.22;;;11.50;99.90;;;;;;4997366;28;20037;-82
2023/05/30 02:25:09;;;;;;;4.47;3.88;;;11.50;99.90;;;;;;4994709;28;20037;-82
2023/05/30 02:27:35;;;;;;;5.22;3.95;;;11.40;99.90;;;;;;4991492;28;20034;-81
2023/05/30 02:30:00;;;;;;;5.53;3.42;;;11.40;99.90;;;;;;4993428;28;20034;-81
2023/05/30 02:32:26;;;;;;;17.48;3.88;;;11.40;99.90;;;;;;5010176;28;20038;-82
2023/05/30 02:34:52;;;;;;;6.63;3.78;;;11.40;99.90;;;;;;5011238;28;20050;-82
2023/05/30 02:37:17;;;;;;;8.25;3.72;;;11.40;99.90;;;;;;4993709;28;20033;-81
2023/05/30 02:39:43;;;;;;;8.45;4.05;;;11.50;99.90;;;;;;4994010;28;20028;-81
2023/05/30 02:42:08;;;;;;;9.95;4.18;;;11.50;99.90;;;;;;4995469;28;20098;-81
2023/05/30 02:44:34;;;;;;;6.65;3.78;;;11.40;99.90;;;;;;4995226;28;20030;-81
2023/05/30 02:47:00;;;;;;;7.03;3.63;;;11.40;99.90;;;;;;4993276;28;20037;-80
2023/05/30 02:49:27;;;;;;;4.07;3.42;;;11.40;99.90;;;;;;4989370;28;20014;-79
2023/05/30 02:52:11;;;;;;;9.82;4.53;;;11.30;99.90;;;;;;5013205;28;20030;-79
2023/05/30 02:54:45;;;;;;;5.45;3.53;;;11.40;99.90;;;;;;5000524;28;20053;-80
2023/05/30 02:57:36;;;;;;;6.03;3.47;;;11.40;99.90;;;;;;5001139;28;20091;-81
2023/05/30 03:00:03;;;;;;;5.13;3.30;;;11.40;99.90;;;;;;5000239;28;20070;-81
2023/05/30 03:02:29;;;;;;;5.97;3.45;;;11.40;99.90;;;;;;5003762;28;20010;-81
2023/05/30 03:05:00;;;;;;;5.00;3.28;;;11.30;99.90;;;;;;5003568;28;20010;-81
2023/05/30 03:07:42;;;;;;;7.05;4.00;;;;;;;;;;5113492;23;20045;-80
2023/05/30 03:10:08;;;;;;;6.82;3.78;;;;;;;;;;4998802;28;20030;-81
2023/05/30 03:12:33;;;;;;;4.78;3.17;;;11.50;99.90;;;;;;5052096;23;20069;-80
2023/05/30 03:14:59;;;;;;;10.20;4.90;;;11.50;99.90;;;;;;4994368;28;20031;-80
2023/05/30 03:17:25;;;;;;;9.32;4.43;;;11.40;99.90;;;;;;4986466;28;20027;-78
2023/05/30 03:19:51;;;;;;;5.47;3.53;;;11.40;99.90;;;;;;5082521;23;20063;-79
2023/05/30 03:22:16;;;;;;;6.28;3.25;;;11.40;99.90;;;;;;4979229;28;20032;-80
2023/05/30 03:24:42;;;;;;;5.18;3.50;;;11.40;99.90;;;;;;4981124;28;20102;-80
2023/05/30 03:27:08;;;;;;;6.78;3.85;;;11.40;99.90;;;;;;4961886;28;20050;-79
2023/05/30 03:29:34;;;;;;;6.15;3.83;;;;;;;;;;4940293;29;20038;-79
2023/05/30 03:32:00;;;;;;;5.70;3.55;;;11.30;99.90;;;;;;4949046;28;20484;-81
2023/05/30 03:34:27;;;;;;;8.07;4.63;;;11.30;99.90;;;;;;4944210;29;20018;-80
2023/05/30 03:36:52;;;;;;;8.65;3.85;;;10.40;99.90;;;;;;5076347;23;20118;-80
2023/05/30 03:39:21;;;;;;;9.05;3.95;;;11.40;99.90;;;;;;5007013;28;20061;-81
2023/05/30 03:41:47;;;;;;;10.98;4.38;;;11.40;99.90;;;;;;4998740;28;20038;-80
2023/05/30 03:44:13;;;;;;;10.75;4.85;;;11.30;99.90;;;;;;5026715;23;20070;-79
2023/05/30 03:46:44;;;;;;;7.85;3.53;;;11.30;99.90;;;;;;4967752;28;20124;-82
2023/05/30 03:49:09;;;;;;;6.05;2.92;;;11.40;99.90;;;;;;4964375;29;20029;-79
2023/05/30 03:51:36;;;;;;;4.97;4.00;;;11.50;99.90;;;;;;4976047;28;20118;-81
2023/05/30 03:54:01;;;;;;;7.28;3.30;;;11.40;99.90;;;;;;4977457;28;20125;-80
2023/05/30 03:56:28;;;;;;;7.07;3.83;;;11.50;99.90;;;;;;4962254;29;20078;-80
2023/05/30 03:58:54;;;;;;;6.63;3.42;;;11.50;99.90;;;;;;4976763;28;20027;-80
2023/05/30 04:01:19;;;;;;;7.25;4.57;;;11.50;99.90;;;;;;4960899;29;20063;-80
2023/05/30 04:03:45;;;;;;;6.13;3.80;;;11.50;99.90;;;;;;4974880;28;20055;-80
2023/05/30 04:06:11;;;;;;;7.65;3.45;;;11.70;99.90;;;;;;4974955;28;20054;-80
2023/05/30 04:08:39;;;;;;;4.65;3.55;;;;;;;;;;4975409;28;20126;-80
2023/05/30 04:11:06;;;;;;;6.22;3.10;;;11.90;99.90;;;;;;4959996;28;20024;-81
2023/05/30 04:13:31;;;;;;;4.50;3.50;;;12.00;99.90;;;;;;4959992;28;20377;-81
2023/05/30 04:16:00;;;;;;;12.32;4.03;;;12.00;99.90;;;;;;4961769;29;20036;-80
2023/05/30 04:18:26;;;;;;;6.35;4.13;;;12.00;99.90;;;;;;4962274;28;20028;-81
2023/05/30 04:20:51;;;;;;;6.65;3.80;;;12.10;99.90;;;;;;4961421;29;20090;-81
2023/05/30 04:23:17;;;;;;;6.53;3.55;;;12.10;99.90;;;;;;4976017;28;20431;-80
2023/05/30 04:25:44;;;;;;;5.18;3.83;;;12.10;99.90;;;;;;4975820;28;20528;-80
2023/05/30 04:28:16;;;;;;;7.57;4.03;;;12.20;99.90;;;;;;4958503;29;20055;-79
2023/05/30 04:30:43;;;;;;;4.85;3.20;;;12.20;99.90;;;;;;4957323;28;20088;-80
2023/05/30 04:33:09;;;;;;;6.60;3.88;;;12.20;99.90;;;;;;4971765;28;20034;-79
2023/05/30 04:35:35;;;;;;;6.00;3.03;;;12.20;99.90;;;;;;4958150;29;20023;-80
2023/05/30 04:38:00;;;;;;;6.38;3.70;;;12.20;99.90;;;;;;4973826;28;20027;-80
2023/05/30 04:40:27;;;;;;;6.82;3.22;;;12.30;99.90;;;;;;4972112;28;20031;-80
2023/05/30 04:42:53;;;;;;;8.70;3.33;;;12.30;99.90;;;;;;4972347;28;20055;-80
2023/05/30 04:45:19;;;;;;;6.47;2.95;;;12.40;99.90;;;;;;4973182;28;20035;-79
2023/05/30 04:47:45;;;;;;;7.20;3.80;;;12.50;99.90;;;;;;4972061;28;20606;-78
2023/05/30 04:50:15;;;;;;;5.57;3.17;;;12.60;99.90;;;;;;4979322;28;20034;-81
2023/05/30 04:52:45;;;;;;;10.18;4.68;;;12.80;99.90;;;;;;4964981;28;20047;-81
2023/05/30 04:55:12;;;;;;;5.75;3.40;;;12.80;99.90;;;;;;4964944;28;20243;-80
2023/05/30 04:57:38;;;;;;;6.50;3.25;;;13.00;99.90;;;;;;4965474;29;20032;-81
2023/05/30 05:00:09;;;;;;;3.65;3.15;;;13.10;99.90;;;;;;4966000;28;20026;-81
2023/05/30 05:02:38;;;;;;;4.72;3.25;;;13.30;99.90;;;;;;4967282;29;20099;-81
2023/05/30 05:05:05;;;;;;;13.88;4.18;;;13.40;99.90;;;;;;4969341;29;20042;-80
2023/05/30 05:07:31;;;;;;;7.28;3.72;;;13.50;99.90;;;;;;4970758;28;20039;-81
2023/05/30 05:09:56;;;;;;;6.95;3.30;;;13.60;99.90;;;;;;4967310;29;20116;-81
2023/05/30 05:12:22;;;;;;;10.32;3.05;;;13.80;99.90;;;;;;4967935;28;20091;-81
2023/05/30 05:14:50;;;;;;;8.07;3.20;;;13.80;99.90;;;;;;4963924;28;20055;-81
2023/05/30 05:17:16;;;;;;;4.30;3.75;;;13.90;99.90;;;;;;4961419;29;20031;-81
2023/05/30 05:19:41;;;;;;;8.10;4.05;;;13.90;99.90;;;;;;4960132;29;20542;-81
2023/05/30 05:22:07;;;;;;;10.10;3.58;;;13.90;99.90;;;;;;4960500;29;20035;-80
2023/05/30 05:24:33;;;;;;;6.05;2.90;;;13.90;99.90;;;;;;4957874;28;20046;-80
2023/05/30 05:26:58;;;;;;;5.40;2.75;;;14.00;99.90;;;;;;4958083;29;20579;-80
2023/05/30 05:29:25;;;;;;;3.25;2.63;;;14.00;99.90;;;;;;4957574;28;20027;-79
2023/05/30 05:31:51;;;;;;;7.25;4.00;;;14.00;99.90;;;;;;4957532;28;20023;-79
2023/05/30 05:34:17;;;;;;;6.72;3.92;;;14.00;99.90;;;;;;4958841;28;20077;-78
2023/05/30 05:36:43;;;;;;;9.82;3.13;;;14.00;99.90;;;;;;4952805;29;20125;-78
2023/05/30 05:39:08;;;;;;;6.43;3.63;;;13.90;99.90;;;;;;4959417;29;20027;-78
2023/05/30 05:41:34;;;;;;;5.82;3.83;;;14.00;99.90;;;;;;4955655;29;20126;-79
2023/05/30 05:44:00;;;;;;;6.13;3.38;;;14.10;99.90;;;;;;4957796;29;20043;-78
2023/05/30 05:46:26;;;;;;;9.27;4.72;;;14.10;99.90;;;;;;4957680;29;20027;-77
2023/05/30 05:48:56;;;;;;;4.97;3.45;;;14.00;99.90;;;;;;4959378;29;20106;-78
2023/05/30 05:51:22;;;;;;;8.23;3.88;;;14.00;99.90;;;;;;4955457;29;20082;-78
2023/05/30 05:53:47;;;;;;;11.63;4.18;;;14.10;99.90;;;;;;4956747;29;20114;-81
2023/05/30 05:56:13;;;;;;;5.68;3.08;;;14.30;99.90;;;;;;4967121;28;20047;-81
2023/05/30 05:58:39;;;;;;;10.70;3.50;;;14.30;99.90;;;;;;4966560;28;20224;-81
2023/05/30 06:01:05;;;;;;;7.53;3.55;;;14.30;99.90;;;;;;4963556;29;20031;-79
2023/05/30 06:03:30;;;;;;;7.45;3.50;;;15.80;99.90;;;;;;4955252;29;20046;-79
2023/05/30 06:05:57;;;;;;;7.78;3.65;;;14.20;99.90;;;;;;4954453;29;20027;-79
2023/05/30 06:08:22;;;;;;;8.35;3.30;;;14.50;99.90;;;;;;4957704;28;20101;-79
2023/05/30 06:10:48;;;;;;;10.13;4.15;;;14.50;99.90;;;;;;4948391;29;20442;-79
2023/05/30 06:13:15;;;;;;;9.40;3.35;;;14.50;99.90;;;;;;4942099;29;20042;-79
2023/05/30 06:15:41;;;;;;;7.45;3.63;;;14.50;99.90;;;;;;4954467;28;20035;-77
2023/05/30 06:18:07;;;;;;;6.85;3.65;;;14.60;99.90;;;;;;4963029;29;20095;-78
2023/05/30 06:20:36;;;;;;;9.13;4.28;;;14.60;99.90;;;;;;4962335;29;20035;-78
2023/05/30 06:23:02;;;;;;;11.27;3.88;;;14.80;99.90;;;;;;4958339;29;20029;-78
2023/05/30 06:25:29;;;;;;;13.23;4.22;;;14.80;99.90;;;;;;4945040;29;20034;-78
2023/05/30 06:27:55;;;;;;;5.68;3.55;;;14.80;99.90;;;;;;4944199;29;20078;-78
2023/05/30 06:30:21;;;;;;;7.97;4.90;;;14.80;99.90;;;;;;4960091;29;20042;-78
2023/05/30 06:32:46;;;;;;;14.88;4.15;;;14.80;99.90;;;;;;4961914;29;20122;-78
2023/05/30 06:35:12;;;;;;;6.78;4.00;;;14.80;99.90;;;;;;4958753;28;20091;-78
2023/05/30 06:37:37;;;;;;;7.88;3.63;;;15.30;99.90;;;;;;4966099;29;20019;-78
2023/05/30 06:40:05;;;;;;;8.43;3.63;;;16.10;99.90;;;;;;4963157;29;20058;-78
2023/05/30 06:42:33;;;;;;;9.25;4.07;;;16.70;99.90;;;;;;4967092;28;20323;-78
2023/05/30 06:44:58;;;;;;;6.70;3.08;;;17.00;99.90;;;;;;4954166;28;20407;-79
2023/05/30 06:47:24;;;;;;;7.40;4.03;;;17.20;99.90;;;;;;4950770;29;20439;-77
2023/05/30 06:49:49;;;;;;;8.75;3.60;;;17.70;99.90;;;;;;4966429;28;20033;-77
2023/05/30 06:52:15;;;;;;;10.85;3.97;;;17.90;99.90;;;;;;4980932;28;20022;-78
2023/05/30 06:54:41;;;;;;;9.25;3.60;;;18.20;99.90;;;;;;4962913;28;20034;-78
2023/05/30 06:57:07;;;;;;;8.00;3.88;;;18.50;99.90;;;;;;4974025;28;20041;-77
2023/05/30 06:59:34;;;;;;;10.95;3.15;;;18.30;99.90;;;;;;4983281;28;20029;-78
2023/05/30 07:02:01;;;;;;;4.68;2.95;;;18.20;99.90;;;;;;4968157;28;20035;-77
2023/05/30 07:04:28;;;;;;;4.80;2.78;;;18.60;99.60;;;;;;4969776;28;20099;-79
2023/05/30 07:06:54;;;;;;;10.13;4.15;;;18.80;97.60;;;;;;4969225;28;20038;-78
2023/05/30 07:09:19;;;;;;;7.80;3.53;;;18.70;97.40;;;;;;4962128;28;20511;-79
2023/05/30 07:11:45;;;;;;;10.18;4.18;;;19.20;96.00;;;;;;4978425;28;20031;-78
2023/05/30 07:14:11;;;;;;;6.00;3.10;;;19.00;95.90;;;;;;4977312;28;20050;-78
2023/05/30 07:16:37;;;;;;;9.45;3.97;;;18.60;96.50;;;;;;4978058;28;20030;-78
2023/05/30 07:19:03;;;;;;;5.43;3.33;;;19.20;95.50;;;;;;4975674;28;20545;-78
2023/05/30 07:21:29;;;;;;;5.20;3.63;;;19.70;93.10;;;;;;4956926;28;20035;-78
2023/05/30 07:23:55;;;;;;;9.05;3.55;;;19.70;91.80;;;;;;4973348;28;20280;-78
2023/05/30 07:26:21;;;;;;;14.75;4.15;;;20.00;92.60;;;;;;4957294;28;20123;-78
2023/05/30 07:28:47;;;;;;;11.38;4.53;;;20.10;90.50;;;;;;4974860;28;20098;-78
2023/05/30 07:31:12;;;;;;;12.88;3.60;;;20.10;89.50;;;;;;4974374;28;20387;-77
2023/05/30 07:33:38;;;;;;;9.20;3.72;;;19.80;90.50;;;;;;4959574;28;20084;-77
2023/05/30 07:36:04;;;;;;;11.40;3.83;;;20.20;89.40;;;;;;4972712;28;20093;-78
2023/05/30 07:38:29;;;;;;;6.05;4.00;;;20.20;89.70;;;;;;4955679;28;20042;-78
2023/05/30 07:40:55;;;;;;;6.10;3.40;;;20.40;86.00;;;;;;4977104;28;20042;-78
2023/05/30 07:43:21;;;;;;;10.07;3.28;;;20.10;85.70;;;;;;4977566;28;20047;-78
2023/05/30 07:45:46;;;;;;;5.43;3.40;;;20.40;87.00;;;;;;4976003;28;20038;-78
2023/05/30 07:48:12;;;;;;;9.50;3.75;;;19.90;86.60;;;;;;4957645;28;20038;-78
2023/05/30 07:50:38;;;;;;;9.38;4.00;;;20.20;86.30;;;;;;4978548;28;20035;-76
2023/05/30 07:53:03;;;;;;;7.57;3.88;;;20.30;84.20;;;;;;4955642;28;20016;-79
2023/05/30 07:55:29;;;;;;;6.40;3.67;;;20.40;84.60;;;;;;4967262;28;20122;-78
2023/05/30 07:57:55;;;;;;;4.53;3.03;;;20.40;84.60;;;;;;4955042;28;20037;-79
2023/05/30 08:00:20;;;;;;;9.90;3.88;;;20.40;82.20;;;;;;4955253;28;20054;-78
2023/05/30 08:02:46;;;;;;;4.07;3.13;;;20.20;83.80;;;;;;4969931;28;20110;-78
2023/05/30 08:05:12;;;;;;;7.70;3.63;;;19.80;83.20;;;;;;4953485;28;20027;-78
2023/05/30 08:07:37;;;;;;;8.52;3.53;;;20.10;83.40;;;;;;4954229;28;20484;-78
2023/05/30 08:10:03;;;;;;;8.90;3.53;;;19.90;82.50;;;;;;4954219;28;20030;-79
2023/05/30 08:12:29;;;;;;;5.72;3.13;;;20.10;81.80;;;;;;4954483;28;20031;-78
2023/05/30 08:14:56;;;;;;;13.27;3.50;;;19.70;84.20;;;;;;4971878;28;20499;-79
2023/05/30 08:17:26;;;;;;;6.88;3.42;;;20.20;85.40;;;;;;4954853;28;20023;-78
2023/05/30 08:19:53;;;;;;;4.93;2.50;;;20.70;80.90;;;;;;4952962;28;20109;-78
2023/05/30 08:22:21;;;;;;;5.70;2.97;;;20.40;81.00;;;;;;4952396;28;20046;-78
2023/05/30 08:24:53;;;;;;;9.05;3.75;;;20.40;81.70;;;;;;4952275;28;20031;-77
2023/05/30 08:27:19;;;;;;;8.88;3.25;;;20.30;82.80;;;;;;4952627;28;20038;-78
2023/05/30 08:29:45;;;;;;;8.23;3.42;;;20.60;81.80;;;;;;4952563;28;20487;-78
2023/05/30 08:32:11;;;;;;;6.47;3.28;;;20.90;79.60;;;;;;4970380;28;20041;-78
2023/05/30 08:34:36;;;;;;;8.10;4.00;;;21.00;78.80;;;;;;4954362;28;20476;-77
2023/05/30 08:37:02;;;;;;;4.68;3.13;;;20.80;80.90;;;;;;4956039;28;20023;-79
2023/05/30 08:39:28;;;;;;;19.73;3.83;;;21.20;78.40;;;;;;4955460;28;20493;-78
2023/05/30 08:41:53;;;;;;;5.43;3.55;;;21.40;77.50;;;;;;4955113;28;20039;-79
2023/05/30 08:44:19;;;;;;;5.45;3.05;;;21.10;78.00;;;;;;4955092;28;20050;-77
2023/05/30 08:46:46;;;;;;;10.77;3.47;;;;;;;;;;4955215;28;20030;-78
2023/05/30 08:49:20;;;;;;;9.18;3.90;;;20.50;76.70;;;;;;4955598;28;20023;-78
2023/05/30 08:51:48;;;;;;;5.97;3.10;;;20.90;78.70;;;;;;4955236;28;20480;-78
2023/05/30 08:54:22;;;;;;;8.65;3.75;;;21.10;76.80;;;;;;4955631;28;20030;-78
2023/05/30 08:57:10;;;;;;;6.07;3.30;;;21.30;76.20;;;;;;4955431;28;20086;-79
2023/05/30 08:59:36;;;;;;;8.70;3.33;;;22.00;73.00;;;;;;4954202;28;20027;-78
2023/05/30 09:02:03;;;;;;;9.02;3.55;;;22.00;73.50;;;;;;4954965;28;20043;-78
2023/05/30 09:04:31;;;;;;;8.77;4.13;;;22.00;72.90;;;;;;4972752;28;20047;-78
2023/05/30 09:06:57;;;;;;;5.97;3.20;;;21.70;73.30;;;;;;4972045;28;20023;-78
2023/05/30 09:09:23;;;;;;;7.80;3.53;;;21.90;74.20;;;;;;4954524;28;20097;-78
2023/05/30 09:11:51;;;;;;;7.32;4.18;;;21.50;74.70;;;;;;4954727;28;20472;-79
2023/05/30 09:14:17;;;;;;;5.88;3.78;;;21.50;74.50;;;;;;4954885;28;20073;-78
2023/05/30 09:16:42;;;;;;;12.02;3.78;;;21.60;73.90;;;;;;4954746;28;20027;-78
2023/05/30 09:19:08;;;;;;;12.05;3.50;;;21.60;73.80;;;;;;4954480;28;20094;-78
2023/05/30 09:21:35;;;;;;;7.85;3.30;;;21.50;74.60;;;;;;4954280;28;20104;-78
2023/05/30 09:24:04;;;;;;;4.03;3.17;;;21.60;72.60;;;;;;4953961;28;20031;-78
2023/05/30 09:26:32;;;;;;;;;;;22.10;73.60;;;;;;4955097;28;20031;-79
2023/05/30 09:29:09;;;;;;;3.40;3.10;;;21.80;71.30;;;;;;4972253;28;19906;-78
2023/05/30 09:31:36;;;;;;;6.63;3.78;;;21.70;71.50;;;;;;4954840;28;20034;-78
2023/05/30 09:34:02;;;;;;;4.82;2.90;;;21.90;71.90;;;;;;4948290;28;20389;-79
2023/05/30 09:36:28;;;;;;;6.78;3.08;;;21.90;71.90;;;;;;4964615;28;20034;-78
2023/05/30 09:38:58;;;;;;;5.57;3.17;;;22.30;72.80;;;;;;4970278;28;20488;-79
2023/05/30 09:41:28;;;;;;;8.60;3.40;;;22.70;72.00;;;;;;4953189;28;20042;-78
2023/05/30 09:43:55;;;;;;;9.77;3.55;;;22.40;71.00;;;;;;4969505;28;20062;-79
2023/05/30 09:46:30;;;;;;;11.70;3.35;;;21.80;72.20;;;;;;4970102;28;20033;-79
2023/05/30 09:48:57;;;;;;;5.63;3.35;;;21.80;72.50;;;;;;4954197;28;20033;-76
2023/05/30 09:51:29;;;;;;;7.57;3.15;;;21.80;71.60;;;;;;4968000;28;20510;-78
2023/05/30 09:54:02;;;;;;;8.23;3.33;;;21.70;71.90;;;;;;4964887;28;20029;-78
2023/05/30 09:56:36;;;;;;;6.72;3.17;;;22.20;70.60;;;;;;4967712;28;20116;-78
2023/05/30 09:59:10;;;;;;;4.97;3.00;;;22.40;71.70;;;;;;4948498;28;20121;-78
2023/05/30 10:01:37;;;;;;;10.40;3.20;;;22.50;72.30;;;;;;4961673;28;20031;-79
2023/05/30 10:04:19;;;;;;;12.38;3.20;;;22.70;70.00;;;;;;4952632;28;20065;-78
2023/05/30 10:06:47;;;;;;;8.32;3.38;;;22.40;70.60;;;;;;4951645;28;20027;-78
2023/05/30 10:09:13;;;;;;;6.57;2.97;;;22.60;69.70;;;;;;4953693;28;20027;-77
2023/05/30 10:11:41;;;;;;;3.63;2.63;;;23.00;70.90;;;;;;4969564;28;20031;-76
2023/05/30 10:14:08;;;;;;;5.70;3.08;;;23.20;70.00;;;;;;4972933;28;20045;-78
2023/05/30 10:16:37;;;;;;;7.57;3.05;;;23.00;67.90;;;;;;4970199;28;20066;-77
2023/05/30 10:19:08;;;;;;;4.30;2.83;;;23.00;69.20;;;;;;4972966;28;20030;-76
2023/05/30 10:21:37;;;;;;;10.23;2.97;;;23.30;69.20;;;;;;4972629;28;20043;-80
2023/05/30 10:24:08;;;;;;;5.78;3.55;;;23.30;66.00;;;;;;4990110;28;20030;-84
2023/05/30 10:26:38;;;;;;;7.88;3.97;;;22.50;66.80;;;;;;4999289;28;20023;-83
2023/05/30 10:29:07;;;;;;;17.83;3.17;;;22.50;68.40;;;;;;4996679;28;20090;-78
2023/05/30 10:31:34;;;;;;;6.72;3.10;;;22.40;68.20;;;;;;4971060;28;20136;-79
2023/05/30 10:34:06;;;;;;;7.90;3.10;;;22.40;68.30;;;;;;4960833;28;20010;-82
2023/05/30 10:36:34;;;;;;;7.88;3.33;;;22.80;68.30;;;;;;4973485;28;20050;-81
2023/05/30 10:39:27;;;;;;;4.25;3.08;;;22.90;66.80;;;;;;4969009;28;20122;-79
2023/05/30 10:42:03;;;;;;;10.07;4.15;;;23.40;65.80;;;;;;4969922;28;20035;-78
2023/05/30 10:45:12;;;;;;;10.85;3.67;;;23.10;65.60;;;;;;4967753;28;20538;-78
2023/05/30 10:47:52;;;;;;;7.20;3.95;;;23.60;67.90;;;;;;4923805;28;20413;-79
2023/05/30 10:50:26;;;;;;;;;;;23.90;65.20;;;;;;4970190;28;20058;-78
2023/05/30 10:52:55;;;;;;;13.10;3.10;;;23.00;64.40;;;;;;4969072;28;20078;-77
2023/05/30 10:55:21;;;;;;;6.38;2.80;;;24.90;64.00;;;;;;4951356;28;20632;-78
2023/05/30 10:57:46;;;;;;;5.28;2.83;;;24.90;62.50;;;;;;4969214;28;20030;-78
2023/05/30 11:00:15;;;;;;;6.70;3.65;;;24.40;62.60;;;;;;4951157;28;20046;-79
2023/05/30 11:02:40;;;;;;;4.67;2.37;;;24.60;62.60;;;;;;4951910;28;20054;-78
2023/05/30 11:05:08;;;;;;;5.20;2.83;;;25.00;62.80;;;;;;4951632;28;20026;-79
2023/05/30 11:07:36;;;;;;;6.93;2.92;;;25.30;61.60;;;;;;4951771;28;20031;-77
2023/05/30 11:10:05;;;;;;;4.90;2.92;;;25.20;63.40;;;;;;4968392;28;20320;-78
2023/05/30 11:12:31;;;;;;;4.97;3.00;;;25.50;60.60;;;;;;4968486;28;20027;-78
2023/05/30 11:14:58;;;;;;;6.47;3.25;;;25.50;61.10;;;;;;4967134;28;20031;-78
2023/05/30 11:17:34;;;;;;;4.68;2.85;;;25.20;61.90;;;;;;4968014;28;20034;-76
2023/05/30 11:20:20;;;;;;;3.50;2.65;;;25.20;61.20;;;;;;4968798;28;20490;-78
2023/05/30 11:23:01;;;;;;;5.10;2.55;;;25.50;60.90;;;;;;4971301;28;20035;-77
2023/05/30 11:25:29;;;;;;;8.25;3.55;;;25.60;59.20;;;;;;4954467;28;20031;-78
2023/05/30 11:28:00;;;;;;;6.15;2.88;;;25.30;58.00;;;;;;4972276;28;20472;-76
2023/05/30 11:30:26;;;;;;;9.10;3.00;;;25.60;58.50;;;;;;4982370;28;20475;-78
2023/05/30 11:32:58;;;;;;;5.22;3.17;;;25.60;60.10;;;;;;4974499;28;20121;-78
2023/05/30 11:35:24;;;;;;;6.80;3.33;;;25.50;59.70;;;;;;4986399;28;20495;-78
2023/05/30 11:37:50;;;;;;;4.82;2.83;;;26.10;57.30;;;;;;4991588;28;20546;-79
2023/05/30 11:40:16;;;;;;;8.75;3.10;;;26.50;58.50;;;;;;4990214;28;20101;-78
2023/05/30 11:42:42;;;;;;;3.88;2.50;;;27.60;56.20;;;;;;4990938;28;20026;-77
2023/05/30 11:45:09;;;;;;;8.50;3.33;;;28.30;55.50;;;;;;4956128;28;20546;-77
2023/05/30 11:47:34;;;;;;;4.07;2.35;;;27.30;55.90;;;;;;4969640;28;20031;-77
2023/05/30 11:50:00;;;;;;;5.70;2.42;;;27.20;57.00;;;;;;4954134;28;20023;-77
2023/05/30 11:52:25;;;;;;;6.15;3.22;;;27.10;56.50;;;;;;4971614;28;20187;-77
2023/05/30 11:54:58;;;;;;;4.85;2.90;;;26.70;56.90;;;;;;4971109;28;20023;-79
2023/05/30 11:57:24;;;;;;;6.18;2.90;;;27.00;56.50;;;;;;4971374;28;20023;-78
2023/05/30 11:59:49;;;;;;;4.03;2.58;;;27.50;54.90;;;;;;4971290;28;20069;-78
2023/05/30 12:02:15;;;;;;;10.13;3.15;;;26.80;56.70;;;;;;4971299;28;20035;-76
2023/05/30 12:04:42;;;;;;;9.93;3.50;;;26.80;56.50;;;;;;4971379;28;20077;-78
2023/05/30 12:07:09;;;;;;;4.72;2.65;;;26.70;57.30;;;;;;4971553;28;20432;-78
2023/05/30 12:09:41;;;;;;;5.85;2.47;;;26.60;55.60;;;;;;4970906;28;20022;-77
2023/05/30 12:12:08;;;;;;;8.68;3.03;;;26.80;55.50;;;;;;4972004;28;20533;-77
2023/05/30 12:14:37;;;;;;;9.30;2.58;;;26.70;56.40;;;;;;4971141;28;20066;-79
2023/05/30 12:17:14;;;;;;;5.30;2.95;;;27.40;55.40;;;;;;4953748;28;20050;-78
2023/05/30 12:19:44;;;;;;;7.22;2.75;;;27.60;56.20;;;;;;4953984;28;20515;-77
2023/05/30 12:22:15;;;;;;;8.63;2.60;;;28.10;54.60;;;;;;4990365;28;20098;-77
2023/05/30 12:24:42;;;;;;;6.57;2.85;;;28.30;56.50;;;;;;4988475;28;20475;-77
2023/05/30 12:27:19;;;;;;;5.38;2.65;;;28.30;53.70;;;;;;4988949;28;20451;-77
2023/05/30 12:29:44;;;;;;;6.22;2.72;;;28.40;53.10;;;;;;4954245;28;20020;-78
2023/05/30 12:32:10;;;;;;;4.85;3.00;;;29.00;52.40;;;;;;4972927;28;20382;-77
2023/05/30 12:34:37;;;;;;;6.38;2.88;;;28.60;52.10;;;;;;4988699;28;20128;-78
2023/05/30 12:37:06;;;;;;;8.32;3.00;;;28.70;52.60;;;;;;4988349;28;20042;-78
2023/05/30 12:39:32;;;;;;;7.90;3.65;;;28.80;52.80;;;;;;4990070;28;20113;-78
2023/05/30 12:41:58;;;;;;;3.17;2.55;;;29.10;52.40;;;;;;4972028;28;20054;-78
2023/05/30 12:44:24;;;;;;;4.28;2.80;;;29.10;51.30;;;;;;4972291;28;20042;-78
2023/05/30 12:46:49;;;;;;;6.40;3.35;;;28.90;51.40;;;;;;4971654;28;20069;-78
2023/05/30 12:49:15;;;;;;;15.73;4.65;;;29.00;51.00;;;;;;4970231;28;20019;-79
2023/05/30 12:51:42;;;;;;;4.90;2.95;;;29.60;50.90;;;;;;4953092;28;20034;-78
2023/05/30 12:54:10;;;;;;;8.85;3.08;;;29.20;51.70;;;;;;4968232;28;20332;-78